createdAt,value
2019-03-03T00:08:25.943Z,76.48
2019-03-03T00:23:28.535Z,78.81
2019-03-03T00:38:35.714Z,80.32
2019-03-03T00:53:51.839Z,79.88
2019-03-03T01:09:01.825Z,78.18
2019-03-03T01:24:09.618Z,76.02
2019-03-03T01:39:13.492Z,71.69
2019-03-03T01:54:16.035Z,70.37
2019-03-03T02:09:18.842Z,73.48
2019-03-03T02:24:22.024Z,75.09
2019-03-03T02:39:24.709Z,74.59
2019-03-03T02:54:27.266Z,72.98
2019-03-03T03:09:32.709Z,74.90
2019-03-03T03:24:42.674Z,75.31
2019-03-03T03:55:21.923Z,76.75
2019-03-03T04:10:29.088Z,79.00
2019-03-03T04:25:51.333Z,80.75
2019-03-03T04:57:20.295Z,84.46
2019-03-03T05:29:02.977Z,87.56
2019-03-03T05:44:35.935Z,88.47
2019-03-03T06:00:08.870Z,88.24
2019-03-03T06:15:42.282Z,86.16
2019-03-03T06:31:15.746Z,82.42
2019-03-03T06:46:48.579Z,82.14
2019-03-03T07:02:21.834Z,81.09
2019-03-03T07:17:55.301Z,80.66
2019-03-03T07:33:30.199Z,78.70
2019-03-03T07:49:03.510Z,78.80
2019-03-03T08:04:36.392Z,77.82
2019-03-03T08:20:09.451Z,75.43
2019-03-03T08:35:44.595Z,74.08
2019-03-03T08:51:25.235Z,72.92
2019-03-03T09:23:23.921Z,66.23
2019-03-03T09:39:00.254Z,63.17
2019-03-03T09:54:39.387Z,57.66
2019-03-03T10:10:18.554Z,53.75
2019-03-03T10:25:57.303Z,49.07
2019-03-03T10:41:33.161Z,49.82
2019-03-03T11:13:31.740Z,50.50
2019-03-03T11:29:08.912Z,53.00
2019-03-03T11:44:45.990Z,54.02
2019-03-03T12:16:49.565Z,52.69
2019-03-03T12:32:29.601Z,50.37
2019-03-03T12:48:06.799Z,47.28
2019-03-03T13:36:07.656Z,44.17
2019-03-03T13:51:41.521Z,43.07
2019-03-03T14:07:14.367Z,44.63
2019-03-03T14:22:47.319Z,45.17
2019-03-03T14:38:20.127Z,45.90
2019-03-03T14:53:52.943Z,45.95
2019-03-03T15:09:28.271Z,47.27
2019-03-03T15:25:01.742Z,48.53
2019-03-03T15:40:38.080Z,51.21
2019-03-03T15:56:11.202Z,52.65
2019-03-03T16:11:44.393Z,54.26
2019-03-03T16:27:17.618Z,55.25
2019-03-03T16:42:50.812Z,57.20
2019-03-03T16:58:23.776Z,55.95
2019-03-03T17:13:56.714Z,58.17
2019-03-03T17:29:29.602Z,59.21
2019-03-03T17:45:03.076Z,60.32
2019-03-03T18:00:55.438Z,60.93
2019-03-03T18:16:28.255Z,61.38
2019-03-03T18:32:01.439Z,61.61
2019-03-03T18:47:34.789Z,64.34
2019-03-03T19:03:07.859Z,65.28
2019-03-03T19:18:40.800Z,66.60
2019-03-03T19:34:15.097Z,68.52
2019-03-03T19:49:50.343Z,69.90
2019-03-03T20:05:23.182Z,70.08
2019-03-03T20:20:56.211Z,71.08
2019-03-03T20:36:29.157Z,69.67
2019-03-03T20:52:03.077Z,69.58
2019-03-03T21:07:36.101Z,69.51
2019-03-03T21:23:09.701Z,69.80
2019-03-03T21:38:42.807Z,71.47
2019-03-03T21:54:16.031Z,73.17
2019-03-03T22:09:49.672Z,74.17
2019-03-03T22:25:24.689Z,73.50
2019-03-03T22:40:57.622Z,72.51
2019-03-03T22:56:30.788Z,71.54
2019-03-03T23:12:31.041Z,70.34
2019-03-03T23:28:04.486Z,69.77
2019-03-03T23:43:37.564Z,69.80
2019-03-03T23:59:10.883Z,70.67
